Time;durP1;ratioP1;P1;durP2;ratioP2;P2;SDS_P1;SDS_P2;PMS_P1;PMS_P2;Temp;Humidity;BMP_temperature;BMP_pressure;BME280_temperature;BME280_humidity;BME280_pressure;Samples;Min_cycle;Max_cycle;Signal;HPM_P1;HPM_P2
2022/09/26 00:00:46;;;;;;;24.45;14.75;;;;;;;7.77;84.85;98111.13;5090443;28;20509;-60
2022/09/26 00:03:12;;;;;;;27.85;14.90;;;;;;;7.69;84.86;98113.16;5091657;28;20040;-61
2022/09/26 00:05:38;;;;;;;37.33;19.30;;;;;;;7.70;85.35;98113.97;5090096;28;20059;-60
2022/09/26 00:08:05;;;;;;;30.83;17.00;;;;;;;7.71;85.14;98115.56;5091285;28;20039;-61
2022/09/26 00:10:32;;;;;;;27.85;14.40;;;;;;;7.81;85.37;98117.50;5090416;28;20078;-61
2022/09/26 00:12:57;;;;;;;17.98;8.77;;;;;;;7.84;84.62;98117.00;5091495;28;20047;-61
2022/09/26 00:15:23;;;;;;;10.10;7.07;;;;;;;7.83;84.32;98118.84;5090225;28;20048;-61
2022/09/26 00:17:49;;;;;;;13.68;7.60;;;;;;;7.83;84.58;98118.84;5091718;28;20043;-62
2022/09/26 00:20:14;;;;;;;11.93;7.38;;;;;;;7.82;84.71;98119.06;5091303;28;20063;-60
2022/09/26 00:22:41;;;;;;;13.70;7.93;;;;;;;7.80;84.67;98121.97;5090053;28;20509;-61
2022/09/26 00:25:07;;;;;;;11.48;7.47;;;;;;;7.84;84.58;98120.41;5091690;28;20067;-61
2022/09/26 00:27:33;;;;;;;12.38;7.38;;;;;;;7.81;84.81;98118.28;5090233;28;20048;-62
2022/09/26 00:29:59;;;;;;;12.73;7.95;;;;;;;7.82;84.79;98133.06;5091353;28;20048;-61
2022/09/26 00:32:25;;;;;;;12.65;8.43;;;;;;;7.77;84.54;98134.88;5089947;28;20051;-61
2022/09/26 00:34:50;;;;;;;12.60;8.52;;;;;;;7.78;84.96;98128.53;5091491;28;20119;-60
2022/09/26 00:37:16;;;;;;;12.43;8.32;;;;;;;7.81;84.66;98136.75;5090175;28;20040;-62
2022/09/26 00:39:42;;;;;;;16.27;9.48;;;;;;;7.82;84.97;98127.78;5091270;28;20550;-61
2022/09/26 00:42:14;;;;;;;14.85;8.73;;;;;;;7.83;85.12;98139.94;5073347;28;20043;-60
2022/09/26 00:44:49;;;;;;;14.32;9.48;;;;;;;7.86;84.56;98136.81;5091421;28;20398;-60
2022/09/26 00:47:21;;;;;;;13.10;7.88;;;;;;;7.85;84.36;98134.41;5090019;28;20122;-60
2022/09/26 00:49:48;;;;;;;14.45;8.60;;;;;;;7.86;84.54;98136.00;5091497;28;20044;-60
2022/09/26 00:52:24;;;;;;;13.60;8.30;;;;;;;7.86;84.52;98131.53;5091563;28;20093;-60
2022/09/26 00:54:53;;;;;;;13.82;8.63;;;;;;;7.82;84.46;98138.34;5090909;28;20047;-60
2022/09/26 00:57:31;;;;;;;16.33;10.52;;;;;;;7.83;84.30;98139.16;5091138;28;20069;-60
2022/09/26 01:00:01;;;;;;;17.70;9.73;;;;;;;7.81;85.09;98143.88;5089864;28;20416;-61
2022/09/26 01:02:27;;;;;;;15.07;9.75;;;;;;;7.79;84.19;98140.69;5089950;28;20071;-60
2022/09/26 01:04:54;;;;;;;19.77;11.02;;;;;;;7.79;84.62;98135.41;5091089;28;20055;-60
2022/09/26 01:07:22;;;;;;;22.17;13.02;;;;;;;7.79;84.77;98138.03;5090793;28;20412;-60
2022/09/26 01:09:48;;;;;;;18.00;10.50;;;;;;;7.62;84.82;98111.78;5089764;28;20485;-60
2022/09/26 01:12:14;;;;;;;15.80;9.43;;;;;;;7.80;84.64;98142.28;5073084;28;20122;-61
2022/09/26 01:14:40;;;;;;;19.50;10.70;;;;;;;7.80;84.88;98134.38;5089655;28;20043;-61
2022/09/26 01:17:07;;;;;;;22.65;11.50;;;;;;;7.83;84.52;98139.16;5044189;28;20032;-60
2022/09/26 01:20:16;;;;;;;17.05;9.88;;;;;;;7.85;84.35;98127.31;5078858;28;20524;-59
2022/09/26 01:22:55;;;;;;;18.63;8.85;;;;;;;7.83;84.07;98129.41;5064952;28;20052;-60
2022/09/26 01:25:34;;;;;;;16.15;9.02;;;;;;;7.81;83.77;98134.13;5090866;28;20040;-61
2022/09/26 01:28:28;;;;;;;15.57;8.57;;;;;;;7.82;84.24;98140.19;5093308;28;20508;-60
2022/09/26 01:31:10;;;;;;;16.83;8.55;;;;;;;7.84;83.59;98135.47;5092914;28;20059;-60
2022/09/26 01:33:58;;;;;;;14.73;8.93;;;;;;;7.83;83.47;98139.94;5076664;28;20048;-61
2022/09/26 01:36:27;;;;;;;15.23;8.98;;;;;;;7.80;84.06;98139.66;5059719;28;20072;-61
2022/09/26 01:38:53;;;;;;;13.25;7.80;;;;;;;7.76;84.20;98138.53;5093144;28;20196;-60
2022/09/26 01:41:41;;;;;;;14.63;8.50;;;;;;;7.72;84.55;98138.25;5076258;28;20371;-61
2022/09/26 01:44:32;;;;;;;12.38;7.93;;;;;;;7.73;84.52;98145.94;5094607;28;20504;-60
2022/09/26 01:47:07;;;;;;;15.30;8.82;;;;;;;7.76;83.97;98147.25;5094672;28;20078;-59
2022/09/26 01:49:48;;;;;;;13.65;8.70;;;;;;;7.76;84.25;98147.25;5092849;28;20101;-60
2022/09/26 01:52:38;;;;;;;15.57;8.45;;;;;;;7.77;83.71;98148.88;5094589;28;20066;-60
2022/09/26 01:55:20;;;;;;;12.93;8.02;;;;;;;7.74;84.22;98141.44;5094407;28;20048;-61
2022/09/26 01:57:58;;;;;;;12.80;8.43;;;;;;;7.76;84.40;98149.09;5092812;28;20420;-61
2022/09/26 02:00:24;;;;;;;12.57;8.20;;;;;;;7.68;84.15;98150.34;5075919;28;20555;-61
2022/09/26 02:02:49;;;;;;;15.65;8.80;;;;;;;7.68;83.75;98160.91;5092581;28;20044;-60
2022/09/26 02:05:31;;;;;;;15.95;10.57;;;;;;;7.62;84.42;98151.34;5093917;28;20044;-61
2022/09/26 02:08:02;;;;;;;13.50;8.90;;;;;;;7.69;84.11;98159.84;5092654;28;20052;-61
2022/09/26 02:10:47;;;;;;;14.63;7.68;;;;;;;7.68;84.21;98155.63;5075889;28;20051;-60
2022/09/26 02:13:24;;;;;;;14.40;8.13;;;;;;;7.63;84.14;98161.63;5076024;28;20051;-60
2022/09/26 02:15:53;;;;;;;11.70;6.93;;;;;;;7.64;84.34;98165.06;5092535;28;20048;-60
2022/09/26 02:18:31;;;;;;;11.35;6.75;;;;;;;7.67;83.92;98161.94;5075477;28;20055;-61
2022/09/26 02:21:00;;;;;;;13.63;7.57;;;;;;;7.63;83.82;98164.28;5092307;28;20047;-60
2022/09/26 02:23:28;;;;;;;12.15;6.97;;;;;;;7.63;83.40;98164.28;5092218;28;20109;-60
2022/09/26 02:25:54;;;;;;;10.60;6.35;;;;;;;7.61;83.69;98165.56;5075648;28;20051;-60
2022/09/26 02:28:21;;;;;;;11.15;6.40;;;;;;;7.64;84.30;98165.84;5091997;28;20451;-60
2022/09/26 02:30:48;;;;;;;11.27;6.65;;;;;;;7.67;83.68;98167.22;5091739;28;20036;-61
2022/09/26 02:33:13;;;;;;;10.63;5.70;;;;;;;7.71;83.59;98173.59;5092280;28;20040;-61
2022/09/26 02:35:54;;;;;;;10.10;6.30;;;;;;;7.71;83.45;98169.13;5075268;28;20040;-61
2022/09/26 02:38:27;;;;;;;9.75;6.43;;;;;;;7.74;83.12;98171.25;5060579;28;20434;-61
2022/09/26 02:41:17;;;;;;;9.80;6.10;;;;;;;7.78;83.16;98176.03;5092109;28;20040;-60
2022/09/26 02:43:53;;;;;;;8.98;6.45;;;;;;;7.78;83.36;98174.19;5074995;28;20044;-60
2022/09/26 02:46:50;;;;;;;10.93;6.38;;;;;;;7.82;83.16;98180.53;5091938;28;20051;-61
2022/09/26 02:49:16;;;;;;;11.65;6.90;;;;;;;7.86;82.55;98180.88;5075371;28;20557;-60
2022/09/26 02:52:07;;;;;;;10.40;6.50;;;;;;;7.83;83.01;98176.09;5093335;28;20063;-61
2022/09/26 02:54:45;;;;;;;11.27;6.88;;;;;;;7.84;82.66;98181.09;5091909;28;20048;-60
2022/09/26 02:57:29;;;;;;;10.50;6.80;;;;;;;7.83;82.26;98178.72;5091831;28;20119;-61
2022/09/26 03:00:06;;;;;;;13.88;8.50;;;;;;;7.80;82.62;98177.38;5091473;28;20527;-60
2022/09/26 03:02:40;;;;;;;13.93;8.55;;;;;;;7.80;82.58;98171.31;5058670;28;20092;-60
2022/09/26 03:05:21;;;;;;;13.63;8.18;;;;;;;7.79;83.06;98172.34;5075430;28;20052;-60
2022/09/26 03:07:55;;;;;;;18.23;10.23;;;;;;;7.79;82.91;98173.13;5075055;28;20048;-62
2022/09/26 03:10:23;;;;;;;17.13;9.88;;;;;;;7.82;82.32;98177.91;5074601;28;20040;-60
2022/09/26 03:12:50;;;;;;;14.52;7.68;;;;;;;7.81;82.07;98175.53;5091769;28;20051;-60
2022/09/26 03:15:16;;;;;;;14.50;8.18;;;;;;;7.84;82.35;98177.66;5074723;28;20105;-60
2022/09/26 03:17:46;;;;;;;15.55;8.02;;;;;;;7.84;82.97;98180.31;5057907;28;20423;-61
2022/09/26 03:20:18;;;;;;;11.05;7.38;;;;;;;7.86;82.69;98175.59;5075096;28;20043;-59
2022/09/26 03:22:44;;;;;;;14.75;7.07;;;;;;;7.87;82.68;98177.97;5074422;28;20058;-61
2022/09/26 03:25:15;;;;;;;12.90;7.70;;;;;;;7.87;82.45;98174.53;5074657;28;20040;-60
2022/09/26 03:27:48;;;;;;;14.02;7.90;;;;;;;7.86;82.74;98178.22;5092382;28;20047;-59
2022/09/26 03:30:16;;;;;;;11.43;7.32;;;;;;;7.89;82.93;98183.81;5074319;28;20040;-62
2022/09/26 03:32:52;;;;;;;11.20;6.68;;;;;;;7.89;82.68;98186.44;5091257;28;20457;-60
2022/09/26 03:35:17;;;;;;;13.80;7.30;;;;;;;7.94;82.62;98193.59;5092562;28;20067;-61
2022/09/26 03:37:44;;;;;;;12.68;7.38;;;;;;;7.92;82.36;98187.78;5092531;28;20416;-60
2022/09/26 03:40:11;;;;;;;13.43;7.82;;;;;;;7.95;82.05;98184.66;5092328;28;20040;-61
2022/09/26 03:43:02;;;;;;;12.50;6.72;;;;;;;7.95;82.05;98192.56;5090706;28;20044;-61
2022/09/26 03:45:28;;;;;;;11.38;6.95;;;;;;;7.97;82.44;98193.09;5090965;28;20555;-61
2022/09/26 03:48:02;;;;;;;11.95;7.20;;;;;;;7.99;82.45;98196.28;5091048;28;20052;-61
2022/09/26 03:50:28;;;;;;;10.98;6.72;;;;;;;7.97;82.59;98195.72;5090885;28;20066;-59
2022/09/26 03:52:54;;;;;;;9.60;6.63;;;;;;;7.98;82.17;98197.34;5091920;28;20309;-61
2022/09/26 03:55:20;;;;;;;11.77;6.38;;;;;;;7.99;81.97;98204.19;5090661;28;20036;-60
2022/09/26 03:57:45;;;;;;;9.02;5.80;;;;;;;7.99;82.19;98203.41;5090633;28;20506;-60
2022/09/26 04:00:23;;;;;;;12.20;7.47;;;;;;;8.00;82.00;98199.72;5090385;28;20040;-61
2022/09/26 04:02:49;;;;;;;11.60;6.75;;;;;;;7.99;82.07;98206.84;5091866;28;20437;-60
2022/09/26 04:05:26;;;;;;;11.20;6.50;;;;;;;7.98;82.16;98205.25;5073694;28;20040;-60
2022/09/26 04:07:52;;;;;;;13.02;6.82;;;;;;;7.97;82.39;98207.09;5090426;28;20052;-61
2022/09/26 04:10:18;;;;;;;17.17;7.13;;;;;;;7.96;82.12;98209.97;5090402;28;20054;-61
2022/09/26 04:12:44;;;;;;;12.55;7.10;;;;;;;7.99;81.92;98206.84;5091861;28;20040;-61
2022/09/26 04:15:10;;;;;;;10.57;6.35;;;;;;;7.99;82.32;98206.84;5090457;28;20048;-62
2022/09/26 04:17:37;;;;;;;13.40;8.13;;;;;;;8.01;82.41;98206.59;5090293;28;20048;-60
2022/09/26 04:20:04;;;;;;;12.10;7.22;;;;;;;8.04;81.83;98201.63;5090234;28;20056;-61
2022/09/26 04:22:31;;;;;;;13.05;7.80;;;;;;;8.06;82.12;98212.72;5090408;28;20036;-61
2022/09/26 04:24:57;;;;;;;11.27;6.90;;;;;;;8.11;81.75;98212.75;5090258;28;20048;-61
2022/09/26 04:27:27;;;;;;;12.93;7.63;;;;;;;8.09;82.10;98206.94;5089798;28;20055;-60
2022/09/26 04:29:53;;;;;;;12.48;7.10;;;;;;;8.15;81.69;98213.09;5090240;28;20054;-61
2022/09/26 04:32:32;;;;;;;13.63;8.63;;;;;;;8.16;81.77;98214.66;5089840;28;20044;-61
2022/09/26 04:35:16;;;;;;;12.30;7.50;;;;;;;8.17;81.97;98208.31;5075878;28;20040;-59
2022/09/26 04:37:42;;;;;;;11.98;7.53;;;;;;;8.16;81.39;98209.38;5089947;28;20393;-60
2022/09/26 04:40:09;;;;;;;13.10;7.75;;;;;;;8.18;81.47;98210.72;5090350;28;20036;-60
2022/09/26 04:42:40;;;;;;;13.98;8.15;;;;;;;8.24;81.30;98216.06;5090003;28;20147;-60
2022/09/26 04:45:07;;;;;;;12.35;7.28;;;;;;;8.26;81.05;98219.22;5090100;28;20051;-59
2022/09/26 04:47:32;;;;;;;12.20;7.38;;;;;;;8.29;81.72;98218.72;5091516;28;20051;-59
2022/09/26 04:50:18;;;;;;;13.00;7.47;;;;;;;8.31;80.73;98220.06;5081331;28;20043;-58
2022/09/26 04:53:07;;;;;;;13.32;7.78;;;;;;;8.34;81.64;98213.50;5072804;28;20052;-60
2022/09/26 04:55:56;;;;;;;14.85;7.68;;;;;;;8.36;80.79;98220.13;5071955;28;20040;-60
2022/09/26 04:58:21;;;;;;;15.15;7.32;;;;;;;8.40;81.20;98223.09;5055796;28;20063;-60
2022/09/26 05:00:48;;;;;;;12.38;7.28;;;;;;;8.35;81.27;98225.66;5055847;28;20147;-59
2022/09/26 05:03:21;;;;;;;12.90;7.15;;;;;;;8.40;80.94;98225.72;5055676;28;20147;-59
2022/09/26 05:05:49;;;;;;;11.73;7.90;;;;;;;8.45;80.91;98231.06;5039221;28;20047;-60
2022/09/26 05:08:15;;;;;;;12.90;7.25;;;;;;;8.51;80.21;98224.75;5055652;28;20052;-60
2022/09/26 05:10:42;;;;;;;11.57;6.75;;;;;;;8.56;80.43;98229.28;5055603;28;20485;-60
2022/09/26 05:13:08;;;;;;;11.68;7.35;;;;;;;8.57;80.14;98234.31;5038984;28;20265;-59
2022/09/26 05:15:38;;;;;;;11.00;6.82;;;;;;;8.59;79.99;98228.81;5055420;28;20047;-60
2022/09/26 05:18:06;;;;;;;11.63;7.22;;;;;;;8.61;80.30;98231.97;5055518;28;20044;-60
2022/09/26 05:20:34;;;;;;;9.90;6.65;;;;;;;8.63;79.52;98233.31;5055306;28;20151;-60
2022/09/26 05:23:02;;;;;;;10.80;7.05;;;;;;;8.68;79.56;98231.75;5073644;28;20056;-60
2022/09/26 05:28:19;;;;;;;10.02;6.72;;;;;;;8.69;79.36;98238.63;5093478;28;20171;-60
2022/09/26 05:30:44;;;;;;;10.48;6.32;;;;;;;8.74;79.08;98234.19;5093492;28;20188;-60
2022/09/26 05:33:11;;;;;;;9.55;6.30;;;;;;;8.78;79.18;98229.97;5093442;28;20428;-61
2022/09/26 05:35:39;;;;;;;12.02;6.57;;;;;;;8.81;79.19;98241.91;5076500;28;20047;-64
2022/09/26 05:38:04;;;;;;;11.07;6.88;;;;;;;8.77;79.38;98238.97;5076340;28;20509;-59
2022/09/26 05:43:15;;;;;;;10.00;6.20;;;;;;;8.78;78.71;98252.97;5076096;28;20040;-59
2022/09/26 05:45:42;;;;;;;8.93;6.03;;;;;;;8.83;78.30;98248.53;5093022;28;20067;-59
2022/09/26 05:48:10;;;;;;;11.45;6.95;;;;;;;8.89;78.16;98254.66;5092631;28;20063;-60
2022/09/26 05:50:38;;;;;;;9.65;5.72;;;;;;;8.92;77.96;98248.84;5092588;28;20435;-59
2022/09/26 05:53:04;;;;;;;8.93;5.40;;;;;;;8.97;77.70;98250.72;5075681;28;20048;-59
2022/09/26 05:55:31;;;;;;;7.55;5.15;;;;;;;8.99;77.25;98248.63;5092615;28;20040;-57
2022/09/26 05:58:17;;;;;;;9.80;5.90;;;;;;;9.04;76.86;98252.09;5093431;28;20051;-60
2022/09/26 06:01:16;;;;;;;7.90;5.00;;;;;;;9.10;76.67;98251.06;5066718;28;20044;-60
2022/09/26 06:03:44;;;;;;;13.95;9.13;;;;;;;9.15;76.93;98252.16;5059092;28;20048;-60
2022/09/26 06:06:18;;;;;;;9.15;6.22;;;;;;;9.18;76.29;98257.75;5072334;28;20052;-58
2022/09/26 06:08:45;;;;;;;8.75;4.85;;;;;;;9.17;75.30;98258.78;5055427;28;20048;-58
2022/09/26 06:11:46;;;;;;;7.53;5.15;;;;;;;9.23;76.01;98256.97;5031122;28;20048;-58
2022/09/26 06:14:12;;;;;;;10.27;5.50;;;;;;;9.30;75.47;98262.84;5059684;28;20048;-59
2022/09/26 06:16:38;;;;;;;12.65;5.07;;;;;;;9.23;75.30;98260.38;5072175;28;20048;-58
2022/09/26 06:19:03;;;;;;;7.38;4.88;;;;;;;9.25;75.28;98265.44;5071930;28;20131;-58
2022/09/26 06:21:29;;;;;;;7.40;4.32;;;;;;;9.25;75.14;98263.59;5060847;28;20036;-59
2022/09/26 06:24:02;;;;;;;9.18;4.50;;;;;;;9.37;75.48;98270.53;5067426;28;20040;-59
2022/09/26 06:26:29;;;;;;;7.65;4.53;;;;;;;9.46;75.08;98274.28;5069041;28;20041;-58
2022/09/26 06:28:56;;;;;;;7.03;4.68;;;;;;;9.54;75.39;98273.78;5052737;28;20094;-59
2022/09/26 06:31:24;;;;;;;7.07;4.78;;;;;;;9.59;74.76;98265.06;5070172;28;20045;-61
2022/09/26 06:34:11;;;;;;;7.00;4.63;;;;;;;9.64;74.87;98270.38;5049763;28;20068;-59
2022/09/26 06:36:46;;;;;;;8.25;5.22;;;;;;;9.69;74.50;98273.06;5069024;28;20033;-58
2022/09/26 06:39:13;;;;;;;8.98;5.30;;;;;;;9.75;73.91;98278.09;5071589;28;20054;-60
2022/09/26 06:41:39;;;;;;;6.68;4.78;;;;;;;9.75;73.83;98279.97;5069718;28;20044;-60
2022/09/26 06:44:27;;;;;;;9.77;5.38;;;;;;;9.76;73.92;98282.38;5070524;28;20068;-60
2022/09/26 06:47:14;;;;;;;8.27;4.80;;;;;;;9.86;73.93;98286.09;5069585;28;20130;-59
2022/09/26 06:49:39;;;;;;;6.90;5.10;;;;;;;9.90;73.79;98285.31;5070008;28;20044;-60
2022/09/26 06:52:10;;;;;;;8.65;5.32;;;;;;;9.94;73.42;98291.69;5070751;28;20052;-60
2022/09/26 06:54:37;;;;;;;8.68;5.18;;;;;;;9.98;73.09;98284.81;5053171;28;20052;-60
2022/09/26 06:57:02;;;;;;;8.30;5.45;;;;;;;10.02;72.88;98285.88;5035500;28;20045;-59
2022/09/26 06:59:30;;;;;;;7.07;5.03;;;;;;;10.09;71.61;98288.28;5074001;28;20044;-59
2022/09/26 07:02:08;;;;;;;7.60;4.93;;;;;;;10.12;72.58;98292.28;5078958;28;20177;-59
2022/09/26 07:04:56;;;;;;;9.88;5.22;;;;;;;10.15;72.74;98294.41;5077729;28;20037;-59
2022/09/26 07:07:41;;;;;;;11.30;6.40;;;;;;;10.18;72.50;98294.66;5065804;28;20933;-59
2022/09/26 07:10:10;;;;;;;9.73;5.47;;;;;;;10.19;72.31;98301.56;5067340;28;20117;-60
2022/09/26 07:12:42;;;;;;;9.20;5.22;;;;;;;10.21;72.36;98303.94;5083904;28;20425;-61
2022/09/26 07:15:12;;;;;;;8.15;4.25;;;;;;;10.23;71.60;98307.94;5085256;28;20037;-60
2022/09/26 07:17:39;;;;;;;7.85;4.45;;;;;;;10.22;71.98;98310.81;5052353;28;20052;-59
2022/09/26 07:20:25;;;;;;;6.20;4.40;;;;;;;10.31;70.67;98319.09;5069540;28;20048;-59
2022/09/26 07:23:05;;;;;;;7.28;4.32;;;;;;;10.23;70.74;98315.88;5085737;28;20057;-60
2022/09/26 07:25:32;;;;;;;8.02;5.10;;;;;;;10.30;71.14;98325.47;5084381;28;20043;-60
2022/09/26 07:27:59;;;;;;;6.25;4.43;;;;;;;10.38;70.67;98327.56;5067781;28;20625;-60
2022/09/26 07:30:39;;;;;;;;;;;;;;;10.44;70.60;98323.88;5086853;28;20048;-60
2022/09/26 07:33:11;;;;;;;6.60;4.40;;;;;;;10.40;70.39;98325.47;5050485;28;19972;-60
2022/09/26 07:35:50;;;;;;;8.43;4.57;;;;;;;10.44;70.57;98318.56;5081389;28;20435;-59
2022/09/26 07:38:15;;;;;;;7.55;4.70;;;;;;;10.58;71.26;98324.97;5066675;28;20052;-59
2022/09/26 07:40:42;;;;;;;8.02;4.90;;;;;;;10.71;70.78;98328.97;5083571;28;20383;-59
2022/09/26 07:43:09;;;;;;;8.60;4.82;;;;;;;10.84;70.30;98330.28;5067757;28;20037;-58
2022/09/26 07:51:53;;;;;;;6.00;3.90;;;;;;;11.08;67.23;98330.56;5045460;28;20039;-60
2022/09/26 07:54:20;;;;;;;5.50;3.97;;;;;;;11.03;67.77;98336.69;5028258;28;20051;-59
2022/09/26 07:57:09;;;;;;;6.43;4.00;;;;;;;11.02;67.53;98340.38;5058243;28;20056;-59
2022/09/26 07:59:49;;;;;;;6.72;3.70;;;;;;;11.11;67.06;98337.97;5082047;28;20094;-60
2022/09/26 08:02:32;;;;;;;5.95;3.42;;;;;;;11.21;66.09;98337.19;5082347;28;20052;-60
2022/09/26 08:05:02;;;;;;;6.43;3.50;;;;;;;11.23;66.17;98335.84;5065313;28;20044;-59
2022/09/26 08:07:32;;;;;;;5.70;3.50;;;;;;;11.42;65.62;98336.09;5082975;28;20056;-60
2022/09/26 08:10:05;;;;;;;7.78;4.10;;;;;;;11.43;65.40;98342.19;5066807;28;20052;-57
2022/09/26 08:12:49;;;;;;;4.72;3.22;;;;;;;11.46;64.75;98349.63;5066166;28;21020;-59
2022/09/26 08:15:44;;;;;;;5.70;3.80;;;;;;;11.53;64.94;98342.16;5059866;28;20446;-59
2022/09/26 08:18:19;;;;;;;9.52;4.18;;;;;;;11.55;65.31;98345.34;5083951;28;20538;-58
2022/09/26 08:20:46;;;;;;;4.88;3.67;;;;;;;11.48;65.18;98358.13;5066971;28;20060;-60
2022/09/26 08:23:16;;;;;;;3.80;3.40;;;;;;;11.42;64.90;98351.22;5052099;28;20113;-59
2022/09/26 08:25:46;;;;;;;5.55;3.20;;;;;;;11.41;64.94;98354.94;5083722;28;20047;-59
2022/09/26 08:28:22;;;;;;;5.70;3.22;;;;;;;11.46;64.79;98354.94;5083981;28;20132;-59
2022/09/26 08:30:48;;;;;;;5.00;3.45;;;;;;;11.52;64.90;98348.53;5083281;28;20493;-60
2022/09/26 08:33:17;;;;;;;6.03;3.40;;;;;;;11.53;64.72;98358.91;5067911;28;20055;-59
2022/09/26 08:35:44;;;;;;;5.07;3.25;;;;;;;11.61;64.53;98354.88;5083113;28;20044;-60
2022/09/26 08:38:29;;;;;;;5.32;3.42;;;;;;;11.57;64.43;98345.88;5068922;28;20044;-59
2022/09/26 08:41:48;;;;;;;4.95;3.25;;;;;;;11.56;64.83;98360.22;5059553;28;20082;-60
2022/09/26 08:48:44;;;;;;;6.25;4.15;;;;;;;11.47;66.74;98367.94;5067189;28;20052;-60
2022/09/26 08:51:34;;;;;;;9.95;5.20;;;;;;;11.62;66.63;98367.13;5031697;28;20049;-60
2022/09/26 08:54:18;;;;;;;5.97;3.85;;;;;;;11.73;66.19;98365.22;5066984;28;20048;-60
2022/09/26 08:57:06;;;;;;;6.18;4.05;;;;;;;11.80;66.11;98379.03;5033537;28;20051;-59
2022/09/26 08:59:42;;;;;;;5.82;3.70;;;;;;;11.73;66.45;98375.84;5050857;28;20048;-59
2022/09/26 09:02:23;;;;;;;7.15;3.90;;;;;;;11.71;66.39;98373.47;5067480;28;20094;-61
2022/09/26 09:05:25;;;;;;;6.22;4.13;;;;;;;11.59;66.47;98380.94;5083609;28;20086;-59
2022/09/26 09:07:53;;;;;;;5.82;3.53;;;;;;;11.42;67.38;98385.72;5060123;28;20436;-60
2022/09/26 09:10:28;;;;;;;34.15;6.93;;;;;;;11.37;67.10;98389.16;5049292;28;20198;-60
2022/09/26 09:13:37;;;;;;;4.38;3.38;;;;;;;11.30;67.04;98391.31;5081018;28;20067;-60
2022/09/26 09:16:41;;;;;;;5.63;3.47;;;;;;;11.24;67.34;98398.47;5025190;28;20056;-62
2022/09/26 09:20:10;;;;;;;4.53;2.70;;;;;;;11.14;66.64;98398.44;5045258;28;20510;-58
2022/09/26 09:23:20;;;;;;;3.58;2.60;;;;;;;11.22;67.06;98397.94;5063641;28;20109;-58
2022/09/26 09:26:06;;;;;;;3.42;2.40;;;;;;;11.28;66.56;98402.16;5067254;28;20059;-61
2022/09/26 09:28:40;;;;;;;7.35;2.85;;;;;;;11.36;66.36;98403.50;5065079;28;20425;-60
2022/09/26 09:31:12;;;;;;;2.90;2.53;;;;;;;11.40;66.71;98409.84;5048318;28;20488;-61
2022/09/26 09:33:59;;;;;;;4.03;3.05;;;;;;;11.41;66.56;98406.13;5082290;28;20056;-60
2022/09/26 09:37:09;;;;;;;5.38;2.70;;;;;;;11.59;64.83;98416.22;5067087;28;20041;-59
2022/09/26 09:40:14;;;;;;;6.20;2.80;;;;;;;11.70;64.96;98411.69;5050044;28;20061;-59
2022/09/26 09:42:56;;;;;;;5.93;2.83;;;;;;;11.82;64.20;98414.03;5052922;28;20182;-58
2022/09/26 09:45:29;;;;;;;3.88;2.88;;;;;;;11.66;64.39;98409.84;5067495;28;20058;-60
2022/09/26 09:47:56;;;;;;;7.50;3.58;;;;;;;11.60;64.56;98404.53;5053742;28;20087;-60
2022/09/26 09:50:36;;;;;;;7.50;4.20;;;;;;;11.59;64.98;98410.91;5087678;28;20497;-59
2022/09/26 09:53:25;;;;;;;5.65;3.05;;;;;;;11.66;64.79;98413.28;5071810;28;20052;-60
2022/09/26 09:56:06;;;;;;;6.75;3.10;;;;;;;11.72;64.46;98416.72;5072294;28;20519;-60
2022/09/26 09:58:38;;;;;;;4.27;2.73;;;;;;;11.72;64.41;98420.16;5087625;28;20041;-61
2022/09/26 10:01:24;;;;;;;3.03;2.05;;;;;;;11.70;64.36;98424.94;5088688;28;20049;-59
2022/09/26 10:04:22;;;;;;;3.88;2.53;;;;;;;11.74;64.92;98415.41;5055212;28;20116;-59
2022/09/26 10:06:48;;;;;;;4.32;2.65;;;;;;;11.80;64.71;98424.16;5078155;28;20052;-61
2022/09/26 10:09:22;;;;;;;6.88;2.75;;;;;;;11.78;64.71;98421.75;5040019;28;20051;-61
2022/09/26 10:12:12;;;;;;;7.55;2.50;;;;;;;11.85;63.96;98423.34;5072116;28;20098;-60
2022/09/26 10:15:20;;;;;;;3.17;2.25;;;;;;;11.92;64.33;98423.91;5072903;28;20054;-60
2022/09/26 10:18:14;;;;;;;3.75;2.13;;;;;;;12.04;63.88;98419.88;5073566;28;20036;-60
2022/09/26 10:21:01;;;;;;;2.33;2.10;;;;;;;12.16;62.99;98421.44;5087300;28;20131;-58
2022/09/26 10:23:39;;;;;;;3.03;1.90;;;;;;;12.17;63.06;98430.97;5071154;28;20505;-58
2022/09/26 10:26:12;;;;;;;4.85;1.80;;;;;;;12.14;62.86;98420.91;5054419;28;20040;-62
2022/09/26 10:28:58;;;;;;;5.82;1.90;;;;;;;12.12;62.68;98418.53;5070082;28;20458;-60
2022/09/26 10:31:37;;;;;;;8.38;1.75;;;;;;;11.99;62.95;98424.41;5071498;28;20511;-61
2022/09/26 10:34:34;;;;;;;3.95;1.80;;;;;;;11.74;62.92;98433.19;5053669;28;20135;-61
2022/09/26 10:37:29;;;;;;;4.50;1.52;;;;;;;11.67;63.61;98430.78;5053318;28;20576;-60
2022/09/26 10:43:21;;;;;;;3.33;2.10;;;;;;;11.35;65.84;98431.06;5069941;28;20046;-59
2022/09/26 10:45:53;;;;;;;4.95;2.53;;;;;;;11.31;66.05;98424.72;5086264;28;20043;-60
2022/09/26 10:48:46;;;;;;;5.43;2.03;;;;;;;11.31;67.01;98432.69;5070207;28;20052;-60
2022/09/26 10:51:31;;;;;;;4.75;1.95;;;;;;;11.33;66.81;98438.53;5070728;28;20050;-59
2022/09/26 10:54:05;;;;;;;3.08;2.05;;;;;;;11.31;67.53;98430.81;5069413;28;20070;-60
2022/09/26 10:56:36;;;;;;;1.95;1.75;;;;;;;11.36;66.78;98436.13;5070496;28;20135;-59
2022/09/26 10:59:03;;;;;;;6.00;2.00;;;;;;;11.43;67.24;98438.50;5069580;28;20413;-61
2022/09/26 11:01:30;;;;;;;3.95;2.33;;;;;;;11.53;66.89;98441.19;5053186;28;20078;-62
2022/09/26 11:04:12;;;;;;;2.55;2.25;;;;;;;11.69;66.60;98441.16;5070783;28;20071;-59
2022/09/26 11:07:20;;;;;;;4.20;2.70;;;;;;;11.78;66.01;98444.84;5033455;28;20428;-62
2022/09/26 11:09:59;;;;;;;5.07;2.30;;;;;;;11.83;65.92;98440.34;5069355;28;20498;-60
2022/09/26 11:12:55;;;;;;;4.35;2.30;;;;;;;12.00;65.61;98444.56;5087235;28;20124;-58
2022/09/26 11:15:23;;;;;;;3.92;1.98;;;;;;;12.15;64.58;98449.06;5086861;28;20036;-61
2022/09/26 11:17:51;;;;;;;4.90;2.22;;;;;;;12.24;64.02;98450.09;5053551;28;20051;-60
2022/09/26 11:20:26;;;;;;;4.30;1.80;;;;;;;12.27;63.42;98447.69;5054034;28;20117;-59
2022/09/26 11:23:03;;;;;;;3.17;2.42;;;;;;;12.34;63.37;98455.38;5070800;28;20499;-61
2022/09/26 11:25:38;;;;;;;2.97;1.77;;;;;;;12.38;63.48;98450.31;5091427;28;20044;-60
2022/09/26 11:28:08;;;;;;;16.73;3.03;;;;;;;12.45;63.03;98448.16;5073802;28;20173;-60
2022/09/26 11:31:21;;;;;;;6.03;1.65;;;;;;;12.56;61.93;98443.56;5035033;28;20077;-61
2022/09/26 11:33:57;;;;;;;3.45;2.17;;;;;;;12.50;62.30;98443.63;5089603;28;20527;-60
2022/09/26 11:37:11;;;;;;;5.13;1.92;;;;;;;12.65;61.34;98456.06;5088582;28;20179;-59
2022/09/26 11:39:57;;;;;;;6.18;1.90;;;;;;;12.65;61.13;98455.25;5071584;28;20377;-60
2022/09/26 11:42:34;;;;;;;1.70;1.58;;;;;;;12.67;60.17;98458.41;5072507;28;20036;-60
2022/09/26 11:45:32;;;;;;;2.28;2.08;;;;;;;12.56;61.10;98451.56;5089037;28;20410;-59
2022/09/26 11:48:26;;;;;;;2.28;2.08;;;;;;;12.58;60.32;98468.03;5073467;28;20113;-61
2022/09/26 11:51:39;;;;;;;6.55;2.20;;;;;;;12.73;60.25;98457.31;5024775;28;20044;-60
2022/09/26 11:54:34;;;;;;;2.40;1.80;;;;;;;12.67;59.84;98463.75;5088251;28;20093;-62
2022/09/26 11:57:22;;;;;;;3.70;2.15;;;;;;;12.53;59.97;98468.03;5090505;28;20090;-60
2022/09/26 11:59:53;;;;;;;5.82;2.35;;;;;;;12.39;60.42;98470.50;5071944;28;20044;-60
2022/09/26 12:02:30;;;;;;;4.43;2.03;;;;;;;12.41;60.04;98471.84;5087676;28;20052;-61
2022/09/26 12:05:24;;;;;;;2.67;2.10;;;;;;;12.37;60.29;98475.28;5089989;28;20518;-61
2022/09/26 12:08:28;;;;;;;3.05;2.10;;;;;;;12.28;60.78;98478.50;5087758;28;20048;-60
2022/09/26 12:11:09;;;;;;;4.90;2.58;;;;;;;12.17;61.25;98484.91;5090814;28;20079;-60
2022/09/26 12:14:01;;;;;;;3.65;2.67;;;;;;;12.02;60.86;98485.72;5088126;28;20040;-59
2022/09/26 12:16:34;;;;;;;4.43;3.03;;;;;;;11.75;62.35;98487.88;5060084;28;20054;-60
2022/09/26 12:19:14;;;;;;;11.50;3.53;;;;;;;11.53;62.66;98488.13;5091512;28;20063;-60
2022/09/26 12:24:53;;;;;;;9.60;4.00;;;;;;;11.34;64.44;98493.97;5072149;28;20044;-59
2022/09/26 12:27:37;;;;;;;8.80;5.00;;;;;;;11.18;66.24;98491.53;5089848;28;20046;-61
2022/09/26 12:30:09;;;;;;;5.43;3.50;;;;;;;10.97;67.67;98491.53;5089269;28;20126;-59
2022/09/26 12:33:10;;;;;;;7.10;3.28;;;;;;;10.81;70.65;98492.53;5088948;28;20046;-60
2022/09/26 12:35:44;;;;;;;;;;;;;;;10.81;70.94;98495.97;5089947;28;20046;-59
2022/09/26 12:38:13;;;;;;;6.78;3.97;;;;;;;10.71;71.85;98495.97;5088368;28;19927;-59